CheckWX is a tool to help pilots better visualize weather data.  It is not intended as a substitute for an official pre-flight weather briefing.

17:11:15 UTC

KMVE METAR
Montevideo-Chippewa County Airport
Montevideo, Minnesota, USA
Current

15 mins ago

KMVE 211656Z AUTO 02004KT 10SM CLR 24/15 A3012 RMK AO2
Observed
Jul-21 @ 16:56 UTC
Wind
  • 020° at 4 KTS
Visibility
10 SM
Flight Rules
VFR
Cloud Levels
  • Clear skies
Temperature
24°C / 75°F
Dewpoint
15°C / 59°F
Humidity
57%
Altimeter
30.12" Hg
Pressure
1020.02 hPa
Previous

34 mins ago

KMVE 211637Z AUTO 02003KT 10SM CLR 24/16 A3013 RMK AO2
Observed
Jul-21 @ 16:37 UTC
Wind
  • 020° at 3 KTS
Visibility
10 SM
Flight Rules
VFR
Cloud Levels
  • Clear skies
Temperature
24°C / 75°F
Dewpoint
16°C / 61°F
Humidity
61%
Altimeter
30.13" Hg
Pressure
1020.32 hPa
Previous

52 mins ago

KMVE 211619Z AUTO 01003KT 10SM CLR 24/15 A3013 RMK AO2
Observed
Jul-21 @ 16:19 UTC
Wind
  • 010° at 3 KTS
Visibility
10 SM
Flight Rules
VFR
Cloud Levels
  • Clear skies
Temperature
24°C / 75°F
Dewpoint
15°C / 59°F
Humidity
57%
Altimeter
30.13" Hg
Pressure
1020.32 hPa